Time;durP1;ratioP1;P1;durP2;ratioP2;P2;SDS_P1;SDS_P2;PMS_P1;PMS_P2;Temp;Humidity;BMP_temperature;BMP_pressure;BME280_temperature;BME280_humidity;BME280_pressure;Samples;Min_cycle;Max_cycle;Signal;HPM_P1;HPM_P2
2024/01/01 00:00:40;;;;;;;25.53;18.00;;;5.80;99.90;;;;;;5056765;28;20247;-76
2024/01/01 00:03:07;;;;;;;26.93;18.00;;;5.80;99.90;;;;;;5057596;28;20166;-77
2024/01/01 00:05:33;;;;;;;28.43;17.73;;;5.80;99.90;;;;;;5058850;28;20194;-78
2024/01/01 00:07:59;;;;;;;23.13;15.20;;;5.90;99.90;;;;;;5056839;28;20222;-78
2024/01/01 00:10:25;;;;;;;22.13;13.63;;;5.80;99.90;;;;;;5055719;28;20217;-77
2024/01/01 00:12:51;;;;;;;15.77;11.77;;;5.90;99.90;;;;;;5056411;28;20167;-75
2024/01/01 00:15:17;;;;;;;18.40;12.47;;;5.90;99.90;;;;;;5056383;28;20264;-78
2024/01/01 00:17:43;;;;;;;19.13;12.83;;;5.90;99.90;;;;;;5055656;28;20254;-78
2024/01/01 00:20:10;;;;;;;18.73;12.00;;;5.90;99.90;;;;;;5056061;28;20212;-79
2024/01/01 00:22:36;;;;;;;15.70;10.27;;;5.80;99.90;;;;;;5055726;28;20226;-81
2024/01/01 00:25:01;;;;;;;17.23;11.03;;;5.90;99.90;;;;;;5055507;28;20260;-81
2024/01/01 00:27:27;;;;;;;17.20;10.17;;;5.90;99.90;;;;;;5055629;28;20530;-77
2024/01/01 00:29:54;;;;;;;12.13;8.00;;;5.90;99.90;;;;;;5054113;28;20213;-78
2024/01/01 00:32:20;;;;;;;10.80;8.27;;;5.90;99.90;;;;;;5054041;28;20214;-77
2024/01/01 00:34:46;;;;;;;9.00;7.93;;;5.90;99.90;;;;;;5039733;28;20183;-77
2024/01/01 00:37:11;;;;;;;10.00;6.93;;;6.00;99.90;;;;;;5035790;28;20198;-79
2024/01/01 00:39:38;;;;;;;8.67;6.37;;;6.00;99.90;;;;;;5036591;28;20183;-78
2024/01/01 00:42:05;;;;;;;7.87;6.40;;;4.90;99.90;;;;;;5037675;28;20192;-76
2024/01/01 00:44:32;;;;;;;5.43;4.93;;;5.90;99.90;;;;;;5043279;28;20646;-78
2024/01/01 00:46:58;;;;;;;6.80;5.10;;;5.90;99.90;;;;;;5044328;28;20271;-79
2024/01/01 00:49:24;;;;;;;4.23;3.50;;;5.80;99.90;;;;;;5049618;28;20172;-78
2024/01/01 00:51:50;;;;;;;4.20;3.73;;;5.80;99.90;;;;;;5033962;28;20212;-81
2024/01/01 00:54:16;;;;;;;2.93;2.60;;;5.80;99.90;;;;;;5034857;28;20220;-77
2024/01/01 00:56:42;;;;;;;2.73;2.53;;;5.80;99.90;;;;;;5035966;28;20691;-78
2024/01/01 00:59:08;;;;;;;2.13;2.03;;;5.80;99.90;;;;;;5035641;28;20175;-82
2024/01/01 01:01:34;;;;;;;2.40;2.20;;;5.80;99.90;;;;;;5036003;28;20191;-78
2024/01/01 01:03:59;;;;;;;1.47;1.47;;;5.70;99.90;;;;;;5037179;28;20711;-79
2024/01/01 01:06:25;;;;;;;2.17;1.97;;;5.70;99.90;;;;;;5039393;28;20198;-80
2024/01/01 01:08:51;;;;;;;2.20;2.00;;;5.60;99.90;;;;;;5035547;28;20221;-78
2024/01/01 01:11:17;;;;;;;2.17;1.67;;;5.60;99.90;;;;;;5035257;28;20210;-80
2024/01/01 01:13:42;;;;;;;1.60;1.53;;;5.60;99.90;;;;;;5036135;28;20179;-77
2024/01/01 01:16:08;;;;;;;1.47;1.30;;;5.50;99.90;;;;;;5039221;28;20176;-79
2024/01/01 01:18:34;;;;;;;1.43;1.37;;;5.50;99.90;;;;;;5043245;28;20227;-78
2024/01/01 01:21:00;;;;;;;1.40;1.40;;;5.50;99.90;;;;;;5046124;28;20180;-75
2024/01/01 01:23:28;;;;;;;1.10;1.10;;;5.50;99.90;;;;;;5036735;28;20170;-79
2024/01/01 01:25:54;;;;;;;1.03;1.03;;;5.40;99.90;;;;;;5035529;28;20382;-78
2024/01/01 01:28:23;;;;;;;1.30;1.30;;;5.40;99.90;;;;;;5035427;28;20198;-79
2024/01/01 01:30:49;;;;;;;0.80;0.77;;;5.40;99.90;;;;;;5035467;28;20616;-77
2024/01/01 01:33:15;;;;;;;0.90;0.90;;;5.40;99.90;;;;;;5036272;28;20209;-76
2024/01/01 01:35:40;;;;;;;1.03;1.03;;;5.40;99.90;;;;;;5036491;28;20182;-79
2024/01/01 01:38:06;;;;;;;1.10;1.10;;;5.40;99.90;;;;;;5036940;28;20169;-77
2024/01/01 01:40:32;;;;;;;1.10;1.10;;;5.40;99.90;;;;;;5035896;28;20165;-80
2024/01/01 01:42:58;;;;;;;0.93;0.93;;;5.40;99.90;;;;;;5038070;28;20168;-81
2024/01/01 01:45:24;;;;;;;1.23;1.03;;;5.40;99.90;;;;;;5036015;28;20176;-81
2024/01/01 01:47:52;;;;;;;0.80;0.80;;;5.40;99.90;;;;;;5034757;28;20173;-79
2024/01/01 01:50:19;;;;;;;0.80;0.80;;;5.40;99.90;;;;;;5035599;28;20169;-77
2024/01/01 01:52:45;;;;;;;0.90;0.90;;;5.40;99.90;;;;;;5034162;28;20231;-81
2024/01/01 01:55:13;;;;;;;0.80;0.80;;;5.40;99.90;;;;;;5036486;28;20204;-79
2024/01/01 01:57:40;;;;;;;0.90;0.90;;;5.30;99.90;;;;;;5035392;28;20548;-77
2024/01/01 02:00:06;;;;;;;0.90;0.90;;;5.30;99.90;;;;;;5038891;28;20230;-77
2024/01/01 02:02:37;;;;;;;0.83;0.83;;;5.30;99.90;;;;;;5034558;28;20234;-78
2024/01/01 02:05:04;;;;;;;0.87;0.87;;;5.30;99.90;;;;;;5034534;28;20166;-81
2024/01/01 02:07:30;;;;;;;0.90;0.90;;;5.30;99.90;;;;;;5035836;28;20178;-79
2024/01/01 02:09:57;;;;;;;1.13;1.10;;;5.20;99.90;;;;;;5034559;28;20217;-79
2024/01/01 02:12:22;;;;;;;1.10;0.83;;;5.20;99.90;;;;;;5036184;28;20272;-76
2024/01/01 02:14:48;;;;;;;0.73;0.73;;;5.20;99.90;;;;;;5039704;28;20177;-77
2024/01/01 02:17:16;;;;;;;0.80;0.80;;;5.20;99.90;;;;;;5037163;28;20235;-79
2024/01/01 02:19:41;;;;;;;1.00;1.00;;;5.20;99.90;;;;;;5035272;28;20264;-80
2024/01/01 02:22:07;;;;;;;0.87;0.87;;;5.20;99.90;;;;;;5035027;28;20220;-79
2024/01/01 02:24:33;;;;;;;1.03;1.03;;;5.20;99.90;;;;;;5039434;28;20191;-77
2024/01/01 02:26:59;;;;;;;0.90;0.90;;;5.30;99.90;;;;;;5053206;28;20207;-79
2024/01/01 02:29:25;;;;;;;1.00;1.00;;;5.30;99.90;;;;;;5045069;28;20168;-77
2024/01/01 02:31:52;;;;;;;0.60;0.60;;;5.30;99.90;;;;;;5038985;28;20258;-79
2024/01/01 02:34:18;;;;;;;1.73;0.93;;;5.30;99.90;;;;;;5034855;28;20251;-79
2024/01/01 02:36:44;;;;;;;0.90;0.90;;;5.30;99.90;;;;;;5034734;28;20227;-80
2024/01/01 02:39:10;;;;;;;0.83;0.83;;;5.40;99.90;;;;;;5035500;28;20175;-81
2024/01/01 02:41:36;;;;;;;0.90;0.90;;;5.50;99.90;;;;;;5032863;28;20697;-78
2024/01/01 02:44:03;;;;;;;0.90;0.90;;;5.50;99.90;;;;;;5033579;28;20173;-80
2024/01/01 02:46:29;;;;;;;1.13;1.00;;;5.50;99.90;;;;;;5033865;28;20517;-81
2024/01/01 02:48:55;;;;;;;1.57;1.20;;;5.50;99.90;;;;;;5033626;28;20176;-79
2024/01/01 02:51:21;;;;;;;1.30;1.20;;;5.60;99.90;;;;;;5033470;28;20209;-79
2024/01/01 02:53:46;;;;;;;1.00;1.00;;;5.60;99.90;;;;;;5033683;28;20617;-78
2024/01/01 02:56:16;;;;;;;0.97;0.97;;;5.40;99.90;;;;;;5033813;28;20183;-80
2024/01/01 02:58:43;;;;;;;1.30;1.20;;;5.40;99.90;;;;;;5033381;28;20533;-79
2024/01/01 03:01:09;;;;;;;1.10;1.00;;;5.40;99.90;;;;;;5033236;28;20178;-80
2024/01/01 03:03:34;;;;;;;1.03;0.93;;;5.40;99.90;;;;;;5034256;28;20182;-82
2024/01/01 03:06:00;;;;;;;1.47;1.10;;;5.40;99.90;;;;;;5040172;28;20186;-81
2024/01/01 03:08:26;;;;;;;1.20;1.10;;;5.40;99.90;;;;;;5045780;28;20248;-81
2024/01/01 03:10:51;;;;;;;1.00;1.00;;;5.50;99.90;;;;;;5037688;28;20263;-79
2024/01/01 03:13:17;;;;;;;1.00;1.00;;;5.40;99.90;;;;;;5033305;28;20171;-80
2024/01/01 03:15:43;;;;;;;1.50;1.50;;;5.40;99.90;;;;;;5033051;28;20175;-81
2024/01/01 03:18:11;;;;;;;1.37;1.33;;;5.40;99.90;;;;;;5033079;28;20183;-77
2024/01/01 03:20:37;;;;;;;1.80;1.30;;;5.30;99.90;;;;;;5033005;28;20242;-79
2024/01/01 03:23:04;;;;;;;0.97;0.97;;;5.30;99.90;;;;;;5033831;28;20194;-78
2024/01/01 03:25:30;;;;;;;1.20;1.20;;;5.30;99.90;;;;;;5033841;28;20174;-78
2024/01/01 03:27:56;;;;;;;1.00;1.00;;;4.70;99.90;;;;;;5034801;28;20626;-77
2024/01/01 03:30:23;;;;;;;1.27;1.27;;;5.30;99.90;;;;;;5037110;28;20187;-77
2024/01/01 03:32:50;;;;;;;1.53;1.43;;;5.30;99.90;;;;;;5036925;28;20183;-77
2024/01/01 03:35:16;;;;;;;1.27;1.27;;;5.40;99.90;;;;;;5033599;28;20239;-79
2024/01/01 03:37:45;;;;;;;1.50;1.50;;;5.40;99.90;;;;;;5034880;28;20162;-74
2024/01/01 03:40:12;;;;;;;1.50;1.43;;;5.40;99.90;;;;;;5034547;28;20173;-79
2024/01/01 03:42:38;;;;;;;1.20;1.20;;;5.40;99.90;;;;;;5038160;28;20163;-79
2024/01/01 03:45:04;;;;;;;1.30;1.30;;;5.50;99.90;;;;;;5042897;28;20174;-79
2024/01/01 03:47:32;;;;;;;1.40;1.30;;;5.50;99.90;;;;;;5034756;28;20177;-77
2024/01/01 03:49:59;;;;;;;1.70;1.60;;;5.50;99.90;;;;;;5033207;28;20637;-81
2024/01/01 03:52:24;;;;;;;1.23;1.23;;;5.50;99.90;;;;;;5033200;28;20210;-78
2024/01/01 03:54:51;;;;;;;1.60;1.50;;;5.50;99.90;;;;;;5036731;28;20174;-81
2024/01/01 03:57:17;;;;;;;1.43;1.30;;;5.50;99.90;;;;;;5036376;28;20263;-76
2024/01/01 03:59:42;;;;;;;1.37;1.27;;;5.40;99.90;;;;;;5041546;28;20217;-77
2024/01/01 04:02:10;;;;;;;1.27;1.27;;;5.30;99.90;;;;;;5051646;28;20178;-79
2024/01/01 04:04:36;;;;;;;1.37;1.30;;;5.40;99.90;;;;;;5036747;28;20177;-79
2024/01/01 04:07:03;;;;;;;1.30;1.30;;;5.40;99.90;;;;;;5037537;28;20223;-79
2024/01/01 04:09:28;;;;;;;1.20;1.20;;;5.40;99.90;;;;;;5037266;28;20227;-76
2024/01/01 04:11:54;;;;;;;1.13;1.03;;;5.40;99.90;;;;;;5046526;28;20223;-79
2024/01/01 04:14:20;;;;;;;1.20;1.20;;;5.40;99.90;;;;;;5045377;28;20167;-81
2024/01/01 04:16:46;;;;;;;2.00;1.90;;;5.30;99.90;;;;;;5037992;28;20186;-79
2024/01/01 04:19:11;;;;;;;1.90;1.80;;;5.30;99.90;;;;;;5036795;28;20741;-77
2024/01/01 04:21:40;;;;;;;1.83;1.73;;;5.30;99.90;;;;;;5036775;28;20186;-81
2024/01/01 04:24:09;;;;;;;1.80;1.70;;;5.30;99.90;;;;;;5035742;28;20201;-80
2024/01/01 04:26:38;;;;;;;1.80;1.70;;;5.20;99.90;;;;;;5035393;28;20206;-81
2024/01/01 04:29:04;;;;;;;2.27;2.10;;;5.30;99.90;;;;;;5036270;28;20200;-80
2024/01/01 04:31:29;;;;;;;1.87;1.77;;;5.30;99.90;;;;;;5037946;28;20209;-77
2024/01/01 04:33:55;;;;;;;1.70;1.60;;;5.20;99.90;;;;;;5035637;28;20173;-79
2024/01/01 04:36:21;;;;;;;1.87;1.77;;;5.20;99.90;;;;;;5035262;28;20665;-79
2024/01/01 04:38:47;;;;;;;1.93;1.83;;;5.10;99.90;;;;;;5035075;28;20626;-77
2024/01/01 04:41:14;;;;;;;2.20;2.10;;;5.20;99.90;;;;;;5035010;28;20197;-77
2024/01/01 04:43:40;;;;;;;2.10;2.00;;;5.50;99.90;;;;;;5035266;28;20181;-76
2024/01/01 04:46:06;;;;;;;1.97;1.87;;;5.20;99.90;;;;;;5035433;28;20234;-76
2024/01/01 04:48:33;;;;;;;2.40;2.27;;;5.20;99.90;;;;;;5035971;28;20267;-77
2024/01/01 04:50:59;;;;;;;2.10;2.00;;;5.20;99.90;;;;;;5038683;28;20201;-79
2024/01/01 04:53:25;;;;;;;2.47;2.27;;;5.30;99.90;;;;;;5045627;28;20213;-79
2024/01/01 04:55:51;;;;;;;2.30;2.20;;;5.30;99.90;;;;;;5041561;28;20174;-80
2024/01/01 04:58:16;;;;;;;2.23;2.13;;;5.20;99.90;;;;;;5035756;28;20177;-79
2024/01/01 05:00:42;;;;;;;2.70;2.50;;;5.20;99.90;;;;;;5035284;28;20186;-76
2024/01/01 05:03:08;;;;;;;2.30;2.20;;;5.20;99.90;;;;;;5048154;28;20283;-80
2024/01/01 05:05:35;;;;;;;2.20;2.10;;;5.20;99.90;;;;;;5035381;28;20657;-79
2024/01/01 05:08:00;;;;;;;2.50;2.30;;;5.20;99.90;;;;;;5035815;28;20231;-78
2024/01/01 05:10:26;;;;;;;2.70;2.30;;;5.20;99.90;;;;;;5033935;28;20262;-81
2024/01/01 05:12:53;;;;;;;3.33;2.60;;;5.10;99.90;;;;;;5035506;28;20196;-80
2024/01/01 05:15:19;;;;;;;2.03;1.93;;;5.00;99.90;;;;;;5034758;28;20231;-78
2024/01/01 05:17:45;;;;;;;2.30;2.20;;;5.10;99.90;;;;;;5034499;28;20580;-81
2024/01/01 05:20:11;;;;;;;2.97;2.27;;;5.10;99.90;;;;;;5034988;28;20692;-80
2024/01/01 05:22:37;;;;;;;2.30;2.10;;;5.10;99.90;;;;;;5035562;28;20269;-78
2024/01/01 05:25:04;;;;;;;2.30;2.10;;;5.20;99.90;;;;;;5035817;28;20183;-80
2024/01/01 05:27:29;;;;;;;4.33;2.43;;;5.20;99.90;;;;;;5036334;28;20224;-79
2024/01/01 05:29:55;;;;;;;2.77;2.50;;;5.20;99.90;;;;;;5036224;28;20560;-75
2024/01/01 05:32:21;;;;;;;2.13;2.03;;;5.20;99.90;;;;;;5036505;28;20599;-79
2024/01/01 05:34:47;;;;;;;2.00;1.90;;;5.20;99.90;;;;;;5034502;28;20643;-77
2024/01/01 05:37:13;;;;;;;2.10;2.00;;;5.20;99.90;;;;;;5035566;28;20718;-77
2024/01/01 05:39:38;;;;;;;2.17;1.97;;;5.30;99.90;;;;;;5041975;28;20531;-77
2024/01/01 05:42:04;;;;;;;2.07;1.97;;;5.30;99.90;;;;;;5045569;28;20178;-79
2024/01/01 05:44:30;;;;;;;2.00;1.90;;;5.20;99.90;;;;;;5039244;28;20179;-85
2024/01/01 05:46:56;;;;;;;2.20;2.00;;;5.30;99.90;;;;;;5033782;28;20186;-80
2024/01/01 05:49:23;;;;;;;2.27;2.07;;;5.30;99.90;;;;;;5034669;28;20176;-79
2024/01/01 05:51:49;;;;;;;2.47;2.30;;;5.30;99.90;;;;;;5034846;28;20213;-77
2024/01/01 05:54:15;;;;;;;1.60;1.50;;;5.20;99.90;;;;;;5036185;28;20221;-79
2024/01/01 05:56:42;;;;;;;1.70;1.60;;;5.30;99.90;;;;;;5036467;28;20176;-80
2024/01/01 05:59:08;;;;;;;2.60;2.00;;;5.30;99.90;;;;;;5034602;28;20192;-79
2024/01/01 06:01:34;;;;;;;2.03;1.93;;;5.30;99.90;;;;;;5036661;28;20209;-75
2024/01/01 06:03:59;;;;;;;2.27;2.10;;;5.20;99.90;;;;;;5034507;28;20176;-80
2024/01/01 06:06:25;;;;;;;2.13;2.03;;;5.20;99.90;;;;;;5033903;28;20256;-77
2024/01/01 06:08:52;;;;;;;2.03;1.93;;;5.20;99.90;;;;;;5036768;28;20218;-77
2024/01/01 06:11:17;;;;;;;2.00;1.90;;;5.20;99.90;;;;;;5046123;28;20197;-79
2024/01/01 06:13:46;;;;;;;2.43;2.00;;;5.10;99.90;;;;;;5050406;28;20716;-79
2024/01/01 06:16:15;;;;;;;2.00;1.90;;;5.10;99.90;;;;;;5034090;28;20198;-77
2024/01/01 06:18:42;;;;;;;3.40;2.10;;;5.00;99.90;;;;;;5035114;28;20209;-77
2024/01/01 06:21:08;;;;;;;2.20;2.00;;;5.10;99.90;;;;;;5046491;28;20530;-76
2024/01/01 06:23:33;;;;;;;1.80;1.70;;;5.10;99.90;;;;;;5038299;28;20198;-80
2024/01/01 06:26:00;;;;;;;3.67;2.97;;;5.10;99.90;;;;;;5033138;28;20185;-81
2024/01/01 06:28:26;;;;;;;2.77;2.57;;;5.10;99.90;;;;;;5033644;28;20228;-78
2024/01/01 06:30:52;;;;;;;2.77;2.57;;;5.10;99.90;;;;;;5034068;28;20296;-81
2024/01/01 06:33:18;;;;;;;2.50;2.40;;;5.00;99.90;;;;;;5033630;28;20165;-77
2024/01/01 06:35:44;;;;;;;2.27;2.07;;;4.90;99.90;;;;;;5038559;28;20196;-78
2024/01/01 06:38:11;;;;;;;2.23;2.13;;;4.80;99.90;;;;;;5041314;28;20172;-76
2024/01/01 06:40:37;;;;;;;2.20;2.10;;;4.80;99.90;;;;;;5044376;28;20193;-78
2024/01/01 06:43:03;;;;;;;2.10;2.00;;;4.60;99.90;;;;;;5050367;28;20186;-77
2024/01/01 06:45:29;;;;;;;1.90;1.80;;;4.70;99.90;;;;;;5035243;28;20192;-80
2024/01/01 06:47:54;;;;;;;1.97;1.87;;;4.70;99.90;;;;;;5032916;28;20188;-79
2024/01/01 06:50:20;;;;;;;1.83;1.70;;;4.70;99.90;;;;;;5034022;28;20174;-77
2024/01/01 06:52:46;;;;;;;2.07;1.80;;;4.70;99.90;;;;;;5033382;28;20173;-78
2024/01/01 06:55:12;;;;;;;3.10;2.20;;;4.70;99.90;;;;;;5033685;28;20171;-77
2024/01/01 06:57:38;;;;;;;2.10;2.00;;;4.80;99.90;;;;;;5033192;28;20613;-78
2024/01/01 07:00:04;;;;;;;1.90;1.80;;;4.80;99.90;;;;;;5033656;28;20164;-77
2024/01/01 07:02:30;;;;;;;1.80;1.70;;;4.80;99.90;;;;;;5033140;28;20187;-79
2024/01/01 07:04:56;;;;;;;2.13;2.00;;;4.90;99.90;;;;;;5033231;28;20170;-82
2024/01/01 07:07:21;;;;;;;2.33;1.80;;;4.90;99.90;;;;;;5033351;28;20181;-81
2024/01/01 07:09:47;;;;;;;1.60;1.60;;;5.00;99.90;;;;;;5033001;28;20712;-77
2024/01/01 07:12:23;;;;;;;3.07;1.80;;;4.90;99.90;;;;;;5034400;28;20235;-77
2024/01/01 07:14:48;;;;;;;2.17;1.97;;;4.80;99.90;;;;;;5039484;28;20200;-76
2024/01/01 07:17:15;;;;;;;2.60;2.20;;;4.80;99.90;;;;;;5046271;28;20176;-76
2024/01/01 07:19:40;;;;;;;2.37;2.27;;;4.80;99.90;;;;;;5046872;28;20644;-77
2024/01/01 07:22:06;;;;;;;2.00;1.90;;;4.80;99.90;;;;;;5032625;28;20185;-78
2024/01/01 07:24:32;;;;;;;1.70;1.60;;;4.90;99.90;;;;;;5033151;28;20185;-78
2024/01/01 07:26:58;;;;;;;1.80;1.70;;;4.80;99.90;;;;;;5033841;28;20702;-79
2024/01/01 07:29:24;;;;;;;2.00;1.90;;;4.80;99.90;;;;;;5038452;28;20203;-78
2024/01/01 07:31:50;;;;;;;1.67;1.53;;;4.70;99.90;;;;;;5039027;28;20197;-78
2024/01/01 07:34:18;;;;;;;1.73;1.63;;;4.70;99.90;;;;;;5037258;28;20597;-78
2024/01/01 07:36:45;;;;;;;1.60;1.60;;;4.60;99.90;;;;;;5040506;28;20184;-78
2024/01/01 07:39:11;;;;;;;1.90;1.60;;;4.70;99.90;;;;;;5054508;28;20189;-76
2024/01/01 07:41:37;;;;;;;1.53;1.50;;;4.70;99.90;;;;;;5046375;28;20176;-77
2024/01/01 07:44:02;;;;;;;1.57;1.53;;;4.70;99.90;;;;;;5037232;28;20170;-77
2024/01/01 07:46:28;;;;;;;1.77;1.67;;;4.60;99.90;;;;;;5038677;28;20657;-78
2024/01/01 07:48:55;;;;;;;1.67;1.67;;;4.50;99.90;;;;;;5039309;28;20252;-79
2024/01/01 07:51:21;;;;;;;1.80;1.70;;;4.50;99.90;;;;;;5038380;28;20192;-80
2024/01/01 07:53:48;;;;;;;1.90;1.80;;;4.60;99.90;;;;;;5039605;28;20173;-80
2024/01/01 07:56:14;;;;;;;1.53;1.53;;;4.50;99.90;;;;;;5037754;28;20228;-77
2024/01/01 07:58:40;;;;;;;1.80;1.70;;;4.50;99.90;;;;;;5037882;28;20170;-78
2024/01/01 08:01:06;;;;;;;1.90;1.80;;;4.50;99.90;;;;;;5048087;28;20172;-79
2024/01/01 08:03:32;;;;;;;1.63;1.53;;;4.40;99.90;;;;;;5061701;28;20205;-79
2024/01/01 08:05:58;;;;;;;1.77;1.67;;;4.40;99.90;;;;;;5063556;28;20158;-79
2024/01/01 08:08:25;;;;;;;1.77;1.67;;;4.30;99.90;;;;;;5068006;28;20225;-78
2024/01/01 08:10:53;;;;;;;1.67;1.63;;;4.30;99.90;;;;;;5056378;28;20196;-80
2024/01/01 08:13:18;;;;;;;5.80;1.67;;;4.30;99.90;;;;;;5057004;28;20202;-79
2024/01/01 08:15:44;;;;;;;1.77;1.67;;;4.30;99.90;;;;;;5056223;28;20184;-77
2024/01/01 08:18:10;;;;;;;1.93;1.83;;;4.30;99.90;;;;;;5056132;28;20596;-78
2024/01/01 08:20:36;;;;;;;1.90;1.80;;;4.40;99.90;;;;;;5090129;28;20579;-82
2024/01/01 08:23:02;;;;;;;1.90;1.80;;;4.40;99.90;;;;;;5056934;28;20234;-82
2024/01/01 08:25:28;;;;;;;2.17;2.07;;;4.50;99.90;;;;;;5057570;28;20220;-82
2024/01/01 08:27:53;;;;;;;2.97;2.20;;;4.60;99.90;;;;;;5071451;28;20207;-81
2024/01/01 08:30:19;;;;;;;1.90;1.80;;;4.60;99.90;;;;;;5068380;28;20184;-81
2024/01/01 08:32:45;;;;;;;2.27;2.17;;;4.70;99.90;;;;;;5056355;28;20654;-78
2024/01/01 08:35:11;;;;;;;1.90;1.80;;;4.70;99.90;;;;;;5056239;28;20544;-80
2024/01/01 08:37:36;;;;;;;2.73;2.53;;;4.80;99.90;;;;;;5056108;28;20522;-77
2024/01/01 08:40:02;;;;;;;2.60;2.40;;;4.90;99.90;;;;;;5054671;28;20188;-81
2024/01/01 08:42:28;;;;;;;2.27;2.17;;;4.90;99.90;;;;;;5055602;28;20192;-79
2024/01/01 08:44:54;;;;;;;1.90;1.80;;;5.00;99.90;;;;;;5054717;28;20171;-78
2024/01/01 08:47:20;;;;;;;2.13;2.03;;;4.90;99.90;;;;;;5056007;28;20179;-76
2024/01/01 08:49:46;;;;;;;3.97;3.67;;;5.00;99.90;;;;;;5057560;28;20178;-75
2024/01/01 08:52:12;;;;;;;2.27;2.17;;;5.10;99.90;;;;;;5054327;28;20265;-78
2024/01/01 08:54:38;;;;;;;2.50;2.40;;;5.20;99.90;;;;;;5062681;28;20536;-76
2024/01/01 08:57:04;;;;;;;2.20;2.10;;;5.20;99.90;;;;;;5042855;28;20195;-76
2024/01/01 08:59:29;;;;;;;2.40;2.30;;;5.20;99.90;;;;;;5046129;28;20182;-79
2024/01/01 09:01:55;;;;;;;2.50;2.30;;;5.30;99.90;;;;;;5038249;28;20188;-77
2024/01/01 09:04:21;;;;;;;2.70;2.50;;;5.30;99.90;;;;;;5033966;28;20192;-76
2024/01/01 09:06:46;;;;;;;2.30;2.20;;;5.30;99.90;;;;;;5036257;28;20184;-77
2024/01/01 09:09:12;;;;;;;3.40;2.03;;;5.30;99.90;;;;;;5037552;28;20219;-76
2024/01/01 09:11:38;;;;;;;2.00;1.90;;;5.30;99.90;;;;;;5037054;28;20256;-76
2024/01/01 09:14:04;;;;;;;2.10;2.00;;;5.30;99.90;;;;;;5037328;28;20189;-76
2024/01/01 09:16:31;;;;;;;2.17;2.00;;;5.30;99.90;;;;;;5053008;28;20182;-78
2024/01/01 09:18:59;;;;;;;3.07;2.77;;;5.10;99.90;;;;;;5053879;28;20235;-77
2024/01/01 09:21:26;;;;;;;2.00;1.90;;;5.10;99.90;;;;;;5055557;28;20642;-77
2024/01/01 09:23:57;;;;;;;2.10;1.90;;;5.10;99.90;;;;;;5042051;28;20184;-76
2024/01/01 09:26:24;;;;;;;2.50;2.30;;;5.00;99.90;;;;;;5037758;28;20173;-77
2024/01/01 09:28:50;;;;;;;1.97;1.87;;;5.00;99.90;;;;;;5038688;28;20203;-77
2024/01/01 09:31:16;;;;;;;1.60;1.60;;;4.90;99.90;;;;;;5037321;28;20317;-78
2024/01/01 09:33:41;;;;;;;1.47;1.47;;;5.00;99.90;;;;;;5036687;28;20654;-78
2024/01/01 09:36:07;;;;;;;1.90;1.80;;;5.00;99.90;;;;;;5034613;28;20191;-78
2024/01/01 09:38:33;;;;;;;2.20;2.00;;;5.10;99.90;;;;;;5034211;28;20180;-80
2024/01/01 09:40:59;;;;;;;2.27;2.07;;;5.10;99.90;;;;;;5047092;28;20176;-81
2024/01/01 09:43:25;;;;;;;2.63;2.00;;;5.20;99.90;;;;;;5054701;28;20186;-81
2024/01/01 09:45:50;;;;;;;2.47;2.27;;;5.20;99.90;;;;;;5054223;28;20575;-80
2024/01/01 09:48:16;;;;;;;3.43;3.20;;;5.30;99.90;;;;;;5054459;28;20178;-77
2024/01/01 09:50:48;;;;;;;3.33;3.10;;;5.30;99.90;;;;;;5055359;28;20203;-77
2024/01/01 09:53:16;;;;;;;3.20;2.90;;;5.30;99.90;;;;;;5054290;28;20668;-78
2024/01/01 09:55:52;;;;;;;2.57;2.40;;;5.40;99.90;;;;;;5087689;28;20184;-77
2024/01/01 09:58:18;;;;;;;2.77;2.30;;;5.50;99.90;;;;;;5054034;28;20235;-78
2024/01/01 10:00:44;;;;;;;2.30;2.20;;;5.50;99.90;;;;;;5054739;28;20195;-78
2024/01/01 10:03:10;;;;;;;2.40;2.20;;;5.50;99.90;;;;;;5069360;28;20201;-76
2024/01/01 10:05:39;;;;;;;2.23;2.13;;;5.60;99.90;;;;;;5060890;28;20263;-76
2024/01/01 10:08:12;;;;;;;2.40;2.00;;;5.60;99.90;;;;;;5056130;28;20282;-78
2024/01/01 10:10:39;;;;;;;2.17;2.00;;;5.60;99.90;;;;;;5053773;28;20165;-76
2024/01/01 10:13:12;;;;;;;2.40;2.30;;;5.60;99.90;;;;;;5052652;28;20211;-74
2024/01/01 10:15:39;;;;;;;2.40;2.20;;;5.60;99.90;;;;;;5073653;28;20152;-74
2024/01/01 10:18:10;;;;;;;2.00;1.90;;;5.60;99.90;;;;;;5064910;28;20218;-77
2024/01/01 10:20:37;;;;;;;2.23;2.03;;;5.60;99.90;;;;;;5054370;28;20175;-76
2024/01/01 10:23:25;;;;;;;2.00;1.90;;;5.60;99.90;;;;;;5053730;28;20172;-80
2024/01/01 10:26:03;;;;;;;2.67;2.03;;;5.50;99.90;;;;;;5052277;28;20266;-79
2024/01/01 10:28:31;;;;;;;2.30;2.20;;;5.50;99.90;;;;;;5053290;28;20172;-78
2024/01/01 10:30:59;;;;;;;2.50;2.30;;;5.50;99.90;;;;;;5053642;28;20210;-77
2024/01/01 10:33:27;;;;;;;2.20;2.10;;;5.50;99.90;;;;;;5054707;28;20190;-82
2024/01/01 10:35:53;;;;;;;2.10;2.00;;;5.50;99.90;;;;;;5066301;28;20595;-81
2024/01/01 10:38:20;;;;;;;2.83;2.63;;;5.50;99.90;;;;;;5059959;28;20164;-81
2024/01/01 10:40:46;;;;;;;2.13;2.03;;;5.60;99.90;;;;;;5053520;28;20534;-82
2024/01/01 10:43:13;;;;;;;2.33;2.20;;;5.60;99.90;;;;;;5054405;28;20194;-80
2024/01/01 10:45:39;;;;;;;2.30;2.20;;;5.60;99.90;;;;;;5053683;28;20678;-81
2024/01/01 10:48:06;;;;;;;2.00;1.90;;;5.50;99.90;;;;;;5052784;28;20164;-82
2024/01/01 10:50:38;;;;;;;2.77;2.57;;;5.50;99.90;;;;;;5053610;28;20184;-80
2024/01/01 10:53:04;;;;;;;2.30;2.20;;;5.50;99.90;;;;;;5054687;28;20167;-81
2024/01/01 10:56:01;;;;;;;2.20;2.10;;;5.50;99.90;;;;;;5054434;28;20172;-78
2024/01/01 10:58:44;;;;;;;2.50;2.30;;;5.50;99.90;;;;;;5053582;28;20235;-77
2024/01/01 11:01:19;;;;;;;3.10;2.90;;;5.40;99.90;;;;;;5053430;28;20230;-82
2024/01/01 11:03:48;;;;;;;3.33;3.03;;;5.50;99.90;;;;;;5055409;28;20227;-81
2024/01/01 11:06:26;;;;;;;3.00;2.80;;;5.50;99.90;;;;;;5057217;28;20312;-81
2024/01/01 11:08:55;;;;;;;3.30;3.00;;;5.40;99.90;;;;;;5062706;28;20223;-76
2024/01/01 11:11:23;;;;;;;2.93;2.73;;;5.50;99.90;;;;;;5059770;28;20199;-80
2024/01/01 11:13:48;;;;;;;3.60;3.00;;;5.50;99.90;;;;;;5057417;28;20175;-79
2024/01/01 11:16:14;;;;;;;2.90;2.70;;;5.60;99.90;;;;;;5057165;28;20176;-79
2024/01/01 11:18:40;;;;;;;2.77;2.57;;;5.70;99.90;;;;;;5057853;28;20180;-78
2024/01/01 11:21:06;;;;;;;2.20;2.00;;;5.70;99.90;;;;;;5059006;28;20170;-77
2024/01/01 11:23:45;;;;;;;2.23;2.13;;;5.70;99.90;;;;;;5056976;28;20692;-78
2024/01/01 11:26:22;;;;;;;2.07;1.97;;;5.80;99.90;;;;;;5059202;28;20187;-78
2024/01/01 11:28:53;;;;;;;2.70;2.07;;;5.80;99.90;;;;;;5058886;28;20275;-79
2024/01/01 11:31:19;;;;;;;1.97;1.87;;;5.90;99.90;;;;;;5058475;28;20209;-79
2024/01/01 11:33:45;;;;;;;2.40;2.30;;;5.90;99.90;;;;;;5059856;28;20176;-78
2024/01/01 11:36:10;;;;;;;2.20;2.10;;;5.80;99.90;;;;;;5064146;28;20226;-79
2024/01/01 11:38:39;;;;;;;2.47;2.30;;;5.80;99.90;;;;;;5058942;28;20195;-79
2024/01/01 11:41:06;;;;;;;2.40;2.20;;;5.80;99.90;;;;;;5062059;28;20181;-76
2024/01/01 11:43:33;;;;;;;2.40;2.30;;;5.90;99.90;;;;;;5072922;28;20166;-76
2024/01/01 11:45:59;;;;;;;2.20;2.10;;;5.90;99.90;;;;;;5065062;28;20182;-77
2024/01/01 11:48:25;;;;;;;3.57;2.53;;;6.00;99.90;;;;;;5059496;28;20533;-77
2024/01/01 11:50:53;;;;;;;3.00;2.80;;;6.00;99.90;;;;;;5059077;28;20722;-78
2024/01/01 11:53:19;;;;;;;2.77;2.30;;;6.00;99.90;;;;;;5056816;28;20175;-75
2024/01/01 11:55:45;;;;;;;2.97;2.77;;;6.10;99.90;;;;;;5060492;28;20242;-77
2024/01/01 11:58:12;;;;;;;3.17;2.87;;;6.10;99.90;;;;;;5063247;28;20169;-76
2024/01/01 12:00:40;;;;;;;4.60;2.37;;;6.10;99.90;;;;;;5061372;28;20178;-78
2024/01/01 12:03:06;;;;;;;2.60;2.40;;;6.10;99.90;;;;;;5079706;28;20208;-77
2024/01/01 12:05:32;;;;;;;2.40;2.30;;;6.10;99.90;;;;;;5060051;28;20253;-80
2024/01/01 12:08:10;;;;;;;3.17;2.90;;;6.10;99.90;;;;;;5058068;28;20169;-76
2024/01/01 12:10:36;;;;;;;2.90;2.70;;;6.20;99.90;;;;;;5056571;28;20163;-78
2024/01/01 12:13:03;;;;;;;3.30;3.03;;;6.10;99.90;;;;;;5059061;28;20241;-78
2024/01/01 12:15:32;;;;;;;3.20;3.00;;;6.20;99.90;;;;;;5071948;28;20165;-75
2024/01/01 12:17:58;;;;;;;6.83;4.27;;;6.10;99.90;;;;;;5057445;28;20250;-77
2024/01/01 12:20:25;;;;;;;5.73;5.20;;;6.20;99.90;;;;;;5055925;28;20572;-78
2024/01/01 12:22:52;;;;;;;5.87;4.67;;;6.10;99.90;;;;;;5058271;28;20323;-80
2024/01/01 12:25:20;;;;;;;4.53;4.13;;;6.20;99.90;;;;;;5057031;28;20174;-79
2024/01/01 12:28:08;;;;;;;3.97;3.67;;;6.20;99.90;;;;;;5044166;28;20184;-78
2024/01/01 12:30:35;;;;;;;4.20;3.87;;;6.20;99.90;;;;;;5035576;28;20188;-77
2024/01/01 12:33:02;;;;;;;3.30;3.10;;;6.20;99.90;;;;;;5054706;28;20265;-79
2024/01/01 12:35:28;;;;;;;3.30;3.03;;;6.30;99.90;;;;;;5056313;28;20172;-78
2024/01/01 12:37:54;;;;;;;2.77;2.63;;;6.30;99.90;;;;;;5055220;28;20190;-75
2024/01/01 12:40:21;;;;;;;2.97;2.77;;;6.50;99.90;;;;;;5055790;28;20174;-79
2024/01/01 12:42:47;;;;;;;4.10;3.70;;;6.30;99.90;;;;;;5055469;28;20752;-78
2024/01/01 12:45:13;;;;;;;4.23;3.73;;;6.30;99.90;;;;;;5054952;28;20175;-80
2024/01/01 12:47:40;;;;;;;2.90;2.70;;;6.40;99.90;;;;;;5055321;28;20189;-79
2024/01/01 12:50:07;;;;;;;3.40;3.20;;;6.30;99.90;;;;;;5055659;28;20172;-77
2024/01/01 12:52:34;;;;;;;3.27;2.90;;;6.40;99.90;;;;;;5055600;28;20598;-76